Time;durP1;ratioP1;P1;durP2;ratioP2;P2;SDS_P1;SDS_P2;PMS_P1;PMS_P2;Temp;Humidity;BMP_temperature;BMP_pressure;BME280_temperature;BME280_humidity;BME280_pressure;Samples;Min_cycle;Max_cycle;Signal;HPM_P1;HPM_P2
2021/08/20 00:00:50;;;;;;;5.18;3.25;;;;;;;18.40;86.21;97970.22;5028236;28;20727;-58
2021/08/20 00:03:16;;;;;;;4.18;3.13;;;;;;;18.56;85.46;97960.19;5028936;28;20591;-58
2021/08/20 00:05:41;;;;;;;4.32;2.88;;;;;;;18.66;85.41;97969.13;5029855;28;20030;-59
2021/08/20 00:08:06;;;;;;;4.75;3.30;;;;;;;18.38;86.02;97967.69;5031982;28;20522;-59
2021/08/20 00:10:33;;;;;;;4.45;3.13;;;;;;;18.45;85.96;97960.13;5028109;28;20032;-59
2021/08/20 00:12:58;;;;;;;7.05;3.10;;;;;;;18.45;86.61;97955.72;5027287;28;20030;-59
2021/08/20 00:15:23;;;;;;;5.95;3.22;;;;;;;18.61;86.11;97959.84;5029494;28;20078;-60
2021/08/20 00:17:49;;;;;;;4.25;3.20;;;;;;;18.37;86.85;97954.59;5028977;28;20087;-59
2021/08/20 00:20:14;;;;;;;5.47;3.10;;;;;;;18.43;86.66;97956.78;5030509;28;20024;-60
2021/08/20 00:22:39;;;;;;;4.38;3.17;;;;;;;18.53;86.46;97960.44;5028956;28;20056;-58
2021/08/20 00:25:05;;;;;;;5.05;3.15;;;;;;;18.55;85.54;97961.16;5027331;28;20049;-59
2021/08/20 00:27:30;;;;;;;4.13;2.70;;;;;;;18.61;86.13;97952.75;5028589;28;20038;-59
2021/08/20 00:29:56;;;;;;;4.70;3.17;;;;;;;18.55;85.75;97955.88;5027905;28;20029;-59
2021/08/20 00:32:21;;;;;;;4.30;3.00;;;;;;;18.44;86.53;97955.84;5028014;28;20035;-60
2021/08/20 00:34:47;;;;;;;4.43;2.97;;;;;;;18.24;87.34;97957.28;5026737;28;20996;-61
2021/08/20 00:37:14;;;;;;;5.75;3.33;;;;;;;18.41;86.25;97946.31;5029452;28;20032;-60
2021/08/20 00:39:41;;;;;;;4.38;2.90;;;;;;;18.21;87.65;97960.97;5032586;28;20048;-59
2021/08/20 00:42:07;;;;;;;5.75;3.10;;;;;;;18.55;86.07;97953.22;5027535;28;20025;-58
2021/08/20 00:44:32;;;;;;;7.97;3.30;;;;;;;18.38;86.80;97953.63;5030174;28;20293;-60
2021/08/20 00:46:57;;;;;;;4.82;2.90;;;;;;;18.33;87.22;97953.13;5027696;28;20389;-59
2021/08/20 00:49:23;;;;;;;4.78;3.13;;;;;;;18.38;87.62;97948.34;5027848;28;20167;-58
2021/08/20 00:51:48;;;;;;;8.98;3.20;;;;;;;18.41;87.28;97948.13;5029291;28;20175;-60
2021/08/20 00:54:14;;;;;;;4.85;2.80;;;;;;;18.27;88.68;97952.63;5044911;28;20120;-58
2021/08/20 00:56:43;;;;;;;3.97;2.78;;;;;;;18.15;89.94;97952.69;5027327;28;20025;-61
2021/08/20 00:59:13;;;;;;;5.90;3.20;;;;;;;18.15;89.64;97948.22;5027427;28;20059;-59
2021/08/20 01:01:39;;;;;;;5.78;3.00;;;;;;;18.16;89.57;97949.94;5026876;28;20060;-58
2021/08/20 01:04:06;;;;;;;5.95;3.35;;;;;;;17.96;90.51;97939.94;5027598;28;20044;-59
2021/08/20 01:06:32;;;;;;;6.40;3.10;;;;;;;18.06;89.64;97947.09;5029019;28;20033;-58
2021/08/20 01:08:57;;;;;;;4.55;3.15;;;;;;;18.16;89.53;97944.66;5028969;28;20056;-59
2021/08/20 01:11:25;;;;;;;5.97;3.00;;;;;;;18.02;90.73;97934.25;5028137;28;20391;-60
2021/08/20 01:13:51;;;;;;;5.68;3.15;;;;;;;18.07;90.85;97940.03;5027167;28;20602;-59
2021/08/20 01:16:16;;;;;;;4.72;3.10;;;;;;;18.08;89.89;97931.16;5026643;28;20127;-60
2021/08/20 01:18:43;;;;;;;4.47;3.30;;;;;;;17.86;91.85;97931.88;5028960;28;20715;-60
2021/08/20 01:21:20;;;;;;;5.13;3.08;;;;;;;17.91;91.10;97930.59;5027530;28;20052;-59
2021/08/20 01:23:52;;;;;;;4.20;3.10;;;;;;;17.81;92.09;97932.19;5027180;28;20030;-58
2021/08/20 01:26:17;;;;;;;7.18;3.65;;;;;;;17.75;92.25;97932.59;5027848;28;20060;-58
2021/08/20 01:28:43;;;;;;;6.03;3.15;;;;;;;17.72;93.07;97930.19;5027411;28;20100;-59
2021/08/20 01:31:11;;;;;;;5.38;3.42;;;;;;;17.73;92.68;97937.16;5029073;28;20025;-58
2021/08/20 01:33:37;;;;;;;5.55;3.33;;;;;;;17.78;92.38;97935.03;5027909;28;20025;-59
2021/08/20 01:36:02;;;;;;;4.53;2.97;;;;;;;17.99;91.38;97937.09;5029226;28;20044;-59
2021/08/20 01:38:28;;;;;;;5.63;3.70;;;;;;;17.98;90.86;97938.06;5028888;28;20052;-59
2021/08/20 01:40:54;;;;;;;7.03;3.05;;;;;;;18.05;91.16;97931.41;5027707;28;20029;-60
2021/08/20 01:43:21;;;;;;;4.38;3.10;;;;;;;17.92;91.76;97932.28;5026545;28;20022;-60
2021/08/20 01:45:47;;;;;;;6.70;3.33;;;;;;;17.77;92.61;97928.06;5028012;28;20518;-59
2021/08/20 01:48:12;;;;;;;8.43;3.28;;;;;;;17.75;93.50;97924.69;5026974;28;20116;-58
2021/08/20 01:50:39;;;;;;;5.18;3.10;;;;;;;17.98;92.26;97930.16;5027811;28;20021;-59
2021/08/20 01:53:06;;;;;;;5.22;3.20;;;;;;;17.97;92.22;97934.56;5027442;28;20035;-60
2021/08/20 01:55:32;;;;;;;4.72;3.10;;;;;;;17.92;92.02;97927.00;5030459;28;20359;-59
2021/08/20 01:57:57;;;;;;;4.65;2.80;;;;;;;18.11;90.76;97936.22;5026058;28;20452;-60
2021/08/20 02:00:22;;;;;;;5.18;3.03;;;;;;;18.21;90.12;97936.38;5027842;28;20430;-60
2021/08/20 02:02:48;;;;;;;5.95;3.05;;;;;;;18.15;89.93;97927.13;5026836;28;20887;-58
2021/08/20 02:05:13;;;;;;;5.70;3.30;;;;;;;17.71;92.59;97933.78;5026027;28;20032;-59
2021/08/20 02:07:40;;;;;;;6.53;3.50;;;;;;;17.24;95.97;97937.94;5024208;28;20395;-60
2021/08/20 02:10:07;;;;;;;4.82;2.85;;;;;;;17.61;94.67;97944.16;5024638;28;20025;-61
2021/08/20 02:12:34;;;;;;;5.13;3.00;;;;;;;17.55;94.73;97944.56;5025234;28;20494;-59
2021/08/20 02:14:59;;;;;;;4.60;3.33;;;;;;;17.45;95.38;97931.19;5025543;28;20029;-60
2021/08/20 02:17:27;;;;;;;5.78;3.15;;;;;;;17.70;93.81;97937.38;5026151;28;20040;-61
2021/08/20 02:19:53;;;;;;;6.93;3.30;;;;;;;17.62;94.90;97939.72;5026882;28;20628;-60
2021/08/20 02:22:18;;;;;;;7.15;3.40;;;;;;;17.75;94.32;97937.88;5029145;28;20326;-58
2021/08/20 02:24:43;;;;;;;4.70;3.20;;;;;;;17.74;94.84;97938.84;5024985;28;20570;-60
2021/08/20 02:27:09;;;;;;;4.75;3.10;;;;;;;17.67;95.42;97940.22;5027072;28;20037;-58
2021/08/20 02:29:34;;;;;;;6.63;3.20;;;;;;;17.62;95.00;97934.44;5028587;28;20033;-60
2021/08/20 02:31:59;;;;;;;5.15;3.22;;;;;;;17.61;96.10;97938.88;5027401;28;20024;-58
2021/08/20 02:34:25;;;;;;;4.22;2.88;;;;;;;17.90;93.98;97934.19;5026756;28;20025;-60
2021/08/20 02:36:50;;;;;;;5.95;3.22;;;;;;;17.75;94.67;97935.25;5024871;28;20029;-60
2021/08/20 02:39:15;;;;;;;6.45;3.25;;;;;;;17.83;93.95;97935.56;5028622;28;20429;-60
2021/08/20 02:41:41;;;;;;;4.63;2.70;;;;;;;18.11;92.03;97936.22;5026746;28;20041;-58
2021/08/20 02:44:06;;;;;;;4.82;3.20;;;;;;;17.83;93.44;97932.91;5025951;28;20044;-60
2021/08/20 02:46:32;;;;;;;10.38;3.10;;;;;;;18.03;92.35;97938.56;5025236;28;20034;-60
2021/08/20 02:48:57;;;;;;;6.32;3.10;;;;;;;17.86;93.43;97932.69;5024324;28;20780;-59
2021/08/20 02:51:22;;;;;;;6.25;3.13;;;;;;;17.94;93.68;97933.94;5025399;28;20058;-60
2021/08/20 02:53:48;;;;;;;6.45;3.10;;;;;;;17.78;94.07;97935.03;5026103;28;20414;-58
2021/08/20 02:56:13;;;;;;;4.90;3.28;;;;;;;17.67;95.18;97940.22;5027061;28;20123;-58
2021/08/20 02:58:38;;;;;;;4.60;3.00;;;;;;;17.63;96.35;97942.25;5026097;28;20444;-60
2021/08/20 03:01:04;;;;;;;5.30;3.25;;;;;;;17.63;95.51;97931.69;5025283;28;20152;-59
2021/08/20 03:03:29;;;;;;;5.68;2.88;;;;;;;17.64;95.73;97932.53;5024744;28;20029;-59
2021/08/20 03:05:55;;;;;;;6.68;3.10;;;;;;;17.78;94.83;97929.75;5024164;28;20021;-60
2021/08/20 03:08:20;;;;;;;5.22;3.30;;;;;;;17.51;96.49;97933.38;5025617;28;20026;-58
2021/08/20 03:10:46;;;;;;;7.70;3.28;;;;;;;17.52;96.92;97935.09;5026720;28;20026;-58
2021/08/20 03:13:12;;;;;;;4.75;3.13;;;;;;;17.64;95.92;97933.34;5025991;28;20064;-58
2021/08/20 03:15:37;;;;;;;4.60;3.30;;;;;;;17.66;95.84;97930.63;5024727;28;20809;-58
2021/08/20 03:18:03;;;;;;;5.68;3.00;;;;;;;17.79;95.57;97926.19;5025973;28;20037;-60
2021/08/20 03:20:28;;;;;;;6.10;3.33;;;;;;;17.47;97.25;97933.72;5026254;28;20036;-58
2021/08/20 03:22:56;;;;;;;5.38;3.08;;;;;;;17.66;96.10;97930.63;5027789;28;20028;-58
2021/08/20 03:25:21;;;;;;;5.10;3.15;;;;;;;17.78;95.17;97934.19;5027763;28;20508;-62
2021/08/20 03:27:47;;;;;;;8.00;3.45;;;;;;;17.73;95.46;97931.88;5024498;28;20025;-58
2021/08/20 03:30:13;;;;;;;7.70;3.03;;;;;;;17.73;95.07;97931.88;5026075;28;20036;-58
2021/08/20 03:32:38;;;;;;;5.32;3.33;;;;;;;17.61;96.90;97927.47;5026645;28;20116;-58
2021/08/20 03:35:05;;;;;;;5.38;3.13;;;;;;;17.75;95.42;97937.03;5025691;28;20670;-59
2021/08/20 03:37:30;;;;;;;5.97;3.60;;;;;;;17.49;96.71;97939.72;5029090;28;20054;-60
2021/08/20 03:39:56;;;;;;;5.75;2.90;;;;;;;17.81;94.69;97940.09;5030075;28;20060;-61
2021/08/20 03:42:21;;;;;;;8.38;3.58;;;;;;;17.69;95.95;97935.69;5029530;28;20048;-62
2021/08/20 03:44:47;;;;;;;5.75;3.20;;;;;;;17.63;96.14;97936.97;5030626;28;20386;-58
2021/08/20 03:47:12;;;;;;;5.03;3.28;;;;;;;17.53;96.76;97941.19;5030948;28;20039;-60
2021/08/20 03:49:37;;;;;;;6.85;3.45;;;;;;;17.40;98.10;97935.94;5027747;28;20029;-58
2021/08/20 03:52:03;;;;;;;6.03;3.20;;;;;;;17.59;96.73;97942.56;5028051;28;20017;-59
2021/08/20 03:54:28;;;;;;;7.05;3.40;;;;;;;17.70;95.63;97945.31;5028977;28;20037;-58
2021/08/20 03:56:54;;;;;;;5.10;3.03;;;;;;;17.82;93.97;97941.75;5030741;28;20025;-60
2021/08/20 03:59:19;;;;;;;5.68;3.20;;;;;;;17.44;96.83;97944.47;5029038;28;20044;-61
2021/08/20 04:01:44;;;;;;;7.25;3.30;;;;;;;17.52;97.14;97944.78;5029158;28;20156;-61
2021/08/20 04:04:10;;;;;;;5.50;3.17;;;;;;;17.41;97.41;97948.19;5028241;28;20021;-59
2021/08/20 04:06:38;;;;;;;4.90;3.50;;;;;;;17.40;96.80;97948.28;5029142;28;20191;-58
2021/08/20 04:09:03;;;;;;;6.40;3.20;;;;;;;17.39;97.12;97950.09;5030664;28;20040;-58
2021/08/20 04:11:28;;;;;;;5.45;3.20;;;;;;;17.52;96.27;97943.00;5028428;28;20026;-58
2021/08/20 04:13:54;;;;;;;8.05;3.60;;;;;;;17.22;98.48;97942.47;5031010;28;20041;-58
2021/08/20 04:16:20;;;;;;;8.55;3.17;;;;;;;17.41;97.05;97953.47;5029432;28;20502;-59
2021/08/20 04:18:46;;;;;;;7.72;3.30;;;;;;;17.18;98.71;97951.56;5030583;28;20566;-59
2021/08/20 04:21:11;;;;;;;5.72;2.85;;;;;;;17.51;96.67;97943.94;5029218;28;20570;-58
2021/08/20 04:23:37;;;;;;;4.82;3.03;;;;;;;17.53;95.87;97941.19;5029514;28;20533;-59
2021/08/20 04:26:02;;;;;;;5.22;3.05;;;;;;;17.58;96.11;97949.63;5028957;28;20107;-62
2021/08/20 04:28:27;;;;;;;5.78;3.00;;;;;;;17.68;94.75;97942.75;5027647;28;20029;-58
2021/08/20 04:30:53;;;;;;;6.00;3.08;;;;;;;17.67;95.08;97941.06;5029252;28;20025;-60
2021/08/20 04:33:18;;;;;;;4.30;2.67;;;;;;;17.86;94.15;97951.16;5027550;28;20036;-60
2021/08/20 04:35:44;;;;;;;4.93;3.30;;;;;;;17.50;96.45;97950.19;5030268;28;20023;-60
2021/08/20 04:38:09;;;;;;;8.27;3.30;;;;;;;17.56;96.52;97950.69;5029061;28;20075;-59
2021/08/20 04:40:34;;;;;;;4.65;3.30;;;;;;;17.57;96.46;97955.00;5028204;28;20023;-60
2021/08/20 04:43:00;;;;;;;7.10;2.90;;;;;;;17.65;96.15;97950.06;5027550;28;20053;-59
2021/08/20 04:45:25;;;;;;;4.70;3.15;;;;;;;17.82;94.84;97959.41;5029064;28;20076;-59
2021/08/20 04:47:53;;;;;;;5.38;3.45;;;;;;;17.63;95.63;97963.34;5025443;28;20564;-59
2021/08/20 04:50:19;;;;;;;4.95;3.05;;;;;;;17.64;95.35;97969.44;5030740;28;20029;-58
2021/08/20 04:52:44;;;;;;;7.97;3.25;;;;;;;17.63;95.12;97965.97;5028775;28;20033;-58
2021/08/20 04:55:10;;;;;;;4.82;3.10;;;;;;;17.67;95.50;97963.97;5027915;28;20040;-61
2021/08/20 04:57:35;;;;;;;7.68;3.50;;;;;;;17.76;94.55;97965.97;5026198;28;20025;-59
2021/08/20 05:00:01;;;;;;;7.65;3.80;;;;;;;17.32;96.08;97960.19;5027254;28;20438;-61
2021/08/20 05:02:30;;;;;;;5.68;3.40;;;;;;;17.53;94.22;97963.16;5021026;28;20029;-60
2021/08/20 05:04:56;;;;;;;7.60;3.50;;;;;;;17.41;94.81;97964.00;5032508;28;20029;-58
2021/08/20 05:07:21;;;;;;;5.35;3.70;;;;;;;17.42;93.90;97973.56;5030116;28;20056;-62
2021/08/20 05:09:46;;;;;;;8.20;3.63;;;;;;;17.66;93.13;97971.06;5031807;28;20040;-58
2021/08/20 05:12:12;;;;;;;6.18;3.50;;;;;;;17.90;91.33;97965.84;5043703;28;20028;-58
2021/08/20 05:14:37;;;;;;;5.97;3.55;;;;;;;17.73;91.38;97976.72;5028986;28;20026;-58
2021/08/20 05:17:03;;;;;;;8.60;3.72;;;;;;;17.40;95.15;97978.13;5030558;28;20531;-58
2021/08/20 05:19:28;;;;;;;5.20;3.60;;;;;;;17.30;96.78;97972.66;5032164;28;20052;-60
2021/08/20 05:21:53;;;;;;;7.70;3.40;;;;;;;17.19;98.09;97975.19;5031264;28;20026;-58
2021/08/20 05:24:19;;;;;;;8.80;3.30;;;;;;;17.24;98.50;97973.09;5030093;28;20059;-58
2021/08/20 05:26:44;;;;;;;7.72;3.35;;;;;;;17.67;95.89;97979.78;5029985;28;20028;-60
2021/08/20 05:29:09;;;;;;;5.35;3.10;;;;;;;17.57;95.51;97984.88;5031887;28;20036;-59
2021/08/20 05:31:34;;;;;;;6.00;3.47;;;;;;;17.90;93.96;97994.88;5030844;28;20107;-60
2021/08/20 05:34:03;;;;;;;6.88;3.58;;;;;;;17.61;95.20;97985.47;5028380;28;20029;-58
2021/08/20 05:36:28;;;;;;;5.55;3.40;;;;;;;17.90;94.51;97988.72;5031171;28;20529;-58
2021/08/20 05:38:54;;;;;;;7.00;3.67;;;;;;;17.70;94.18;97988.34;5029606;28;20454;-60
2021/08/20 05:41:19;;;;;;;5.72;3.70;;;;;;;17.80;93.29;97993.81;5028881;28;20033;-58
2021/08/20 05:43:44;;;;;;;5.95;3.47;;;;;;;17.90;93.21;98002.78;5027786;28;20108;-58
2021/08/20 05:46:10;;;;;;;5.45;3.22;;;;;;;17.97;91.94;98002.34;5032654;28;20073;-61
2021/08/20 05:48:35;;;;;;;6.15;3.55;;;;;;;18.02;91.33;98000.22;5029526;28;20504;-59
2021/08/20 05:51:01;;;;;;;7.40;3.70;;;;;;;18.04;91.51;98003.59;5028419;28;20025;-59
2021/08/20 05:53:28;;;;;;;6.85;3.70;;;;;;;18.26;90.05;98002.91;5029542;28;20613;-61
2021/08/20 05:55:53;;;;;;;5.47;3.20;;;;;;;18.21;90.41;98011.13;5030469;28;20053;-59
2021/08/20 05:58:19;;;;;;;5.15;3.50;;;;;;;18.07;90.48;98003.38;5026700;28;20029;-60
2021/08/20 06:00:44;;;;;;;4.70;3.50;;;;;;;17.83;90.03;98006.78;5030867;28;20935;-58
2021/08/20 06:03:10;;;;;;;5.07;3.30;;;;;;;17.83;90.28;98006.78;5028344;28;20138;-60
2021/08/20 06:05:38;;;;;;;5.88;3.35;;;;;;;18.20;89.01;98004.19;5030291;28;20064;-60
2021/08/20 06:08:04;;;;;;;6.10;3.35;;;;;;;18.29;87.74;98003.53;5029714;28;20435;-58
2021/08/20 06:10:31;;;;;;;6.00;3.63;;;;;;;18.08;89.17;98002.41;5028188;28;20072;-60
2021/08/20 06:12:56;;;;;;;5.47;3.30;;;;;;;18.34;88.72;98004.97;5028433;28;20079;-59
2021/08/20 06:15:22;;;;;;;6.53;3.40;;;;;;;18.71;87.48;98004.91;5027978;28;20021;-60
2021/08/20 06:17:47;;;;;;;6.10;3.40;;;;;;;18.67;86.84;98001.66;5023770;28;20055;-60
2021/08/20 06:20:13;;;;;;;5.60;3.40;;;;;;;18.38;89.04;98003.78;5031075;28;20494;-59
2021/08/20 06:22:39;;;;;;;6.28;3.60;;;;;;;18.76;86.60;98010.69;5029111;28;20033;-58
2021/08/20 06:25:05;;;;;;;8.18;3.47;;;;;;;18.91;85.47;98009.56;5029212;28;20032;-58
2021/08/20 06:27:30;;;;;;;6.22;3.40;;;;;;;19.03;84.94;98019.25;5028648;28;20124;-59
2021/08/20 06:29:56;;;;;;;7.57;3.70;;;;;;;18.61;86.88;98013.53;5027708;28;20191;-58
2021/08/20 06:32:21;;;;;;;9.52;3.50;;;;;;;18.69;86.51;98021.75;5028039;28;20032;-60
2021/08/20 06:34:46;;;;;;;6.35;3.40;;;;;;;18.18;87.60;98021.06;5027775;28;20021;-59
2021/08/20 06:37:12;;;;;;;5.07;3.58;;;;;;;18.43;87.03;98017.50;5028749;28;20611;-59
2021/08/20 06:39:37;;;;;;;4.95;3.33;;;;;;;18.81;84.89;98013.88;5027628;28;20025;-59
2021/08/20 06:42:02;;;;;;;6.78;3.50;;;;;;;18.25;86.63;98017.91;5027961;28;20037;-60
2021/08/20 06:44:28;;;;;;;5.10;3.28;;;;;;;18.59;85.86;98014.59;5029511;28;20020;-58
2021/08/20 06:46:54;;;;;;;7.22;3.30;;;;;;;18.56;85.96;98015.66;5028104;28;20037;-59
2021/08/20 06:49:19;;;;;;;11.90;3.13;;;;;;;18.66;85.96;98019.31;5028942;28;20115;-59
2021/08/20 06:51:44;;;;;;;7.10;3.20;;;;;;;18.82;84.50;98012.91;5028097;28;20029;-58
2021/08/20 06:54:10;;;;;;;5.75;3.50;;;;;;;18.77;84.94;98020.34;5027285;28;20148;-59
2021/08/20 06:56:35;;;;;;;6.40;3.47;;;;;;;18.81;84.51;98012.06;5030702;28;20136;-59
2021/08/20 06:59:01;;;;;;;5.20;3.47;;;;;;;19.23;83.03;98009.81;5028313;28;20111;-59
2021/08/20 07:01:27;;;;;;;6.07;3.67;;;;;;;18.83;84.72;98019.91;5027890;28;20033;-60
2021/08/20 07:03:52;;;;;;;6.18;3.38;;;;;;;19.05;83.57;98016.47;5027319;28;20014;-59
2021/08/20 07:06:26;;;;;;;14.52;3.92;;;;;;;19.50;82.06;98006.00;5027598;28;20028;-58
2021/08/20 07:08:53;;;;;;;9.05;3.40;;;;;;;19.24;82.04;98015.94;5027075;28;20036;-58
2021/08/20 07:11:20;;;;;;;5.78;3.33;;;;;;;19.65;82.31;98014.56;5024602;28;20029;-58
2021/08/20 07:13:45;;;;;;;6.20;3.08;;;;;;;19.87;81.18;98012.88;5028268;28;20541;-60
2021/08/20 07:16:10;;;;;;;6.18;3.38;;;;;;;19.64;80.43;98013.69;5029209;28;20036;-59
2021/08/20 07:18:36;;;;;;;5.70;3.50;;;;;;;19.49;81.42;98019.34;5026509;28;20033;-58
2021/08/20 07:21:07;;;;;;;10.18;3.83;;;;;;;19.83;79.89;98002.56;5026091;28;20640;-59
2021/08/20 07:23:33;;;;;;;6.60;3.50;;;;;;;19.80;79.43;98005.44;5028821;28;20101;-61
2021/08/20 07:26:00;;;;;;;6.55;3.70;;;;;;;19.95;79.49;98005.19;5026488;28;20120;-59
2021/08/20 07:28:28;;;;;;;6.07;2.95;;;;;;;20.13;78.24;97995.78;5026320;28;20063;-59
2021/08/20 07:30:55;;;;;;;5.60;3.58;;;;;;;20.31;77.74;97988.16;5028083;28;20025;-59
2021/08/20 07:33:20;;;;;;;5.72;3.08;;;;;;;20.60;76.45;98007.00;5028703;28;20044;-61
2021/08/20 07:35:45;;;;;;;6.78;3.50;;;;;;;20.15;78.53;98001.78;5027069;28;20052;-59
2021/08/20 07:38:13;;;;;;;5.40;3.20;;;;;;;20.20;78.45;98004.09;5026875;28;20122;-58
2021/08/20 07:40:39;;;;;;;5.10;3.30;;;;;;;20.74;76.68;97995.25;5026206;28;20044;-60
2021/08/20 07:43:04;;;;;;;5.38;3.10;;;;;;;21.31;73.60;98001.09;5029421;28;20025;-58
2021/08/20 07:45:29;;;;;;;6.65;3.10;;;;;;;21.00;74.71;98002.84;5028765;28;20021;-60
2021/08/20 07:47:55;;;;;;;5.60;3.28;;;;;;;21.60;73.67;98004.94;5025528;28;20088;-59
2021/08/20 07:50:20;;;;;;;5.80;3.30;;;;;;;21.16;73.26;98007.72;5028617;28;20033;-58
2021/08/20 07:52:45;;;;;;;6.75;3.30;;;;;;;22.25;70.70;98011.56;5024467;28;20731;-59
2021/08/20 07:55:12;;;;;;;4.80;2.80;;;;;;;22.46;70.99;98024.81;5025986;28;20033;-58
2021/08/20 07:57:55;;;;;;;7.25;2.90;;;;;;;22.49;72.16;98024.50;5028050;28;20422;-60
2021/08/20 08:00:25;;;;;;;5.78;2.90;;;;;;;22.08;71.38;98026.34;5029014;28;20136;-61
2021/08/20 08:02:51;;;;;;;4.63;2.80;;;;;;;22.32;70.82;98025.19;5026673;28;20059;-58
2021/08/20 08:05:16;;;;;;;7.50;2.92;;;;;;;22.13;71.09;98029.44;5026302;28;20100;-59
2021/08/20 08:07:42;;;;;;;5.07;3.00;;;;;;;22.11;71.47;98028.75;5026277;28;20540;-58
2021/08/20 08:10:08;;;;;;;4.97;3.13;;;;;;;21.90;71.50;98035.94;5026079;28;20538;-60
2021/08/20 08:12:33;;;;;;;5.30;3.30;;;;;;;21.72;71.49;98027.75;5025299;28;20359;-62
2021/08/20 08:14:58;;;;;;;4.80;3.17;;;;;;;21.91;71.58;98027.84;5026402;28;20080;-60
2021/08/20 08:17:24;;;;;;;5.18;3.58;;;;;;;21.62;72.01;98030.34;5027419;28;20090;-60
2021/08/20 08:19:50;;;;;;;5.88;3.70;;;;;;;22.26;68.49;98033.72;5027819;28;20024;-59
2021/08/20 08:22:15;;;;;;;5.18;3.63;;;;;;;22.79;66.86;98036.03;5029665;28;20072;-60
2021/08/20 08:24:40;;;;;;;6.30;3.70;;;;;;;23.46;65.75;98031.66;5030828;28;20415;-59
2021/08/20 08:27:06;;;;;;;5.93;3.45;;;;;;;24.84;62.31;98035.38;5029929;28;20560;-60
2021/08/20 08:29:31;;;;;;;5.80;3.33;;;;;;;24.41;61.47;98037.75;5032397;28;20021;-58
2021/08/20 08:31:57;;;;;;;6.57;3.60;;;;;;;24.39;61.33;98036.19;5029381;28;20474;-59
2021/08/20 08:34:22;;;;;;;6.72;3.05;;;;;;;26.01;58.99;98044.09;5028891;28;20990;-60
2021/08/20 08:36:47;;;;;;;5.15;3.33;;;;;;;27.00;54.35;98046.09;5030730;28;20020;-59
2021/08/20 08:39:13;;;;;;;6.57;3.20;;;;;;;28.59;50.78;98037.38;5033408;28;20543;-59
2021/08/20 08:41:38;;;;;;;5.82;3.35;;;;;;;28.53;49.63;98043.44;5032700;28;20024;-60
2021/08/20 08:44:04;;;;;;;5.95;3.60;;;;;;;27.48;51.10;98033.69;5032320;28;20029;-59
2021/08/20 08:46:36;;;;;;;6.25;3.22;;;;;;;29.10;48.09;98038.72;5032483;28;20504;-59
2021/08/20 08:49:03;;;;;;;5.65;3.47;;;;;;;27.71;50.40;98042.88;5033150;28;20035;-60
2021/08/20 08:51:29;;;;;;;6.45;3.40;;;;;;;27.85;50.85;98037.63;5033039;28;20033;-59
2021/08/20 08:53:54;;;;;;;4.82;3.20;;;;;;;29.32;47.23;98037.88;5030896;28;20025;-59
2021/08/20 08:56:20;;;;;;;4.40;2.90;;;;;;;28.36;49.47;98041.81;5031203;28;20024;-62
2021/08/20 08:58:47;;;;;;;6.47;3.63;;;;;;;26.75;52.04;98044.38;5029138;28;20041;-61
2021/08/20 09:01:37;;;;;;;5.78;3.40;;;;;;;27.14;52.14;98036.53;5029242;28;20033;-60
2021/08/20 09:04:21;;;;;;;7.63;3.00;;;;;;;25.06;55.78;98033.25;5033098;28;20061;-59
2021/08/20 09:06:55;;;;;;;5.40;3.45;;;;;;;25.29;55.21;98023.78;5030996;28;20021;-61
2021/08/20 09:09:25;;;;;;;4.57;2.95;;;;;;;25.03;55.77;98034.38;5030636;28;20193;-59
2021/08/20 09:11:58;;;;;;;4.15;2.95;;;;;;;25.10;57.08;98031.94;5031992;28;20663;-61
2021/08/20 09:14:37;;;;;;;4.10;2.95;;;;;;;26.50;53.35;98025.53;5031117;28;20033;-61
2021/08/20 09:17:03;;;;;;;4.78;2.50;;;;;;;26.09;54.33;98028.09;5032285;28;20074;-60
2021/08/20 09:19:30;;;;;;;5.05;2.90;;;;;;;25.92;54.75;98029.84;5033319;28;20037;-59
2021/08/20 09:21:58;;;;;;;4.55;2.50;;;;;;;25.08;57.93;98024.06;5031205;28;20822;-59
2021/08/20 09:24:37;;;;;;;5.65;2.88;;;;;;;25.38;55.25;98030.00;5032071;28;20032;-59
2021/08/20 09:27:17;;;;;;;5.15;2.85;;;;;;;24.99;55.20;98027.66;5030625;28;20085;-59
2021/08/20 09:30:03;;;;;;;5.10;2.70;;;;;;;24.94;56.26;98027.28;5030784;28;20536;-59
2021/08/20 09:32:29;;;;;;;3.97;2.67;;;;;;;24.73;56.68;98028.44;5028831;28;20076;-60
2021/08/20 09:34:58;;;;;;;4.25;2.40;;;;;;;24.91;56.94;98030.28;5028446;28;20029;-59
2021/08/20 09:37:26;;;;;;;5.32;2.55;;;;;;;24.68;55.89;98028.03;5028564;28;20095;-61
2021/08/20 09:39:57;;;;;;;6.47;2.55;;;;;;;25.01;55.38;98025.69;5029275;28;20035;-61
2021/08/20 09:42:22;;;;;;;4.95;2.78;;;;;;;24.70;54.90;98017.22;5028972;28;20064;-60
2021/08/20 09:45:18;;;;;;;4.97;2.60;;;;;;;27.34;51.07;98018.31;5032318;28;20060;-59
2021/08/20 09:47:46;;;;;;;3.45;2.30;;;;;;;28.10;48.78;98013.44;5028889;28;20268;-59
2021/08/20 09:50:11;;;;;;;8.48;2.55;;;;;;;28.31;47.96;98006.66;5028464;28;20044;-61
2021/08/20 09:52:37;;;;;;;3.80;2.50;;;;;;;26.86;49.81;98019.97;5028145;28;20021;-61
2021/08/20 09:55:03;;;;;;;6.82;3.20;;;;;;;25.33;52.20;98013.63;5027805;28;20071;-61
2021/08/20 09:57:28;;;;;;;4.70;2.60;;;;;;;25.90;52.71;98016.63;5029464;28;20029;-63
2021/08/20 09:59:55;;;;;;;3.95;2.60;;;;;;;24.94;56.26;98013.94;5030401;28;20471;-61
2021/08/20 10:02:26;;;;;;;7.80;2.63;;;;;;;24.59;57.10;98015.63;5029527;28;20769;-58
2021/08/20 10:04:59;;;;;;;9.97;2.40;;;;;;;24.31;59.01;98017.47;5029865;28;20487;-60
2021/08/20 10:07:26;;;;;;;4.80;2.75;;;;;;;24.59;58.11;98026.28;5029583;28;20270;-60
2021/08/20 10:09:52;;;;;;;4.53;2.63;;;;;;;24.76;57.45;98022.81;5030526;28;20033;-59
2021/08/20 10:12:23;;;;;;;5.22;2.90;;;;;;;24.39;59.18;98015.75;5030232;28;20027;-58
2021/08/20 10:14:49;;;;;;;5.60;2.60;;;;;;;24.38;59.17;98016.72;5029183;28;20164;-59
2021/08/20 10:17:16;;;;;;;4.47;2.88;;;;;;;23.76;60.46;98018.25;5028628;28;20021;-58
2021/08/20 10:19:42;;;;;;;6.72;3.10;;;;;;;23.49;61.01;98019.91;5025658;28;20569;-59
2021/08/20 10:22:11;;;;;;;5.63;3.10;;;;;;;23.71;60.42;98023.16;5029708;28;20104;-60
2021/08/20 10:24:36;;;;;;;4.85;2.63;;;;;;;24.20;59.27;98018.50;5026724;28;20028;-61
2021/08/20 10:27:05;;;;;;;4.03;2.63;;;;;;;23.93;59.77;98024.66;5026107;28;20029;-59
2021/08/20 10:29:33;;;;;;;4.13;2.90;;;;;;;24.18;60.03;98023.16;5028618;28;20025;-60
2021/08/20 10:32:03;;;;;;;5.13;3.20;;;;;;;23.87;59.91;98015.44;5036069;28;20033;-60
2021/08/20 10:34:28;;;;;;;5.82;3.05;;;;;;;23.89;60.74;98024.13;5027301;28;20044;-60
2021/08/20 10:37:12;;;;;;;5.20;2.80;;;;;;;24.38;59.68;98011.38;5028675;28;20382;-59
2021/08/20 10:39:41;;;;;;;6.40;3.17;;;;;;;24.08;60.42;98019.69;5027620;28;20529;-59
2021/08/20 10:42:15;;;;;;;4.82;3.08;;;;;;;26.22;55.25;98012.44;5029673;28;20035;-60
2021/08/20 10:44:43;;;;;;;4.80;2.90;;;;;;;26.69;52.90;98011.09;5029122;28;20032;-58
2021/08/20 10:47:20;;;;;;;5.80;2.78;;;;;;;27.69;50.59;98014.38;5028241;28;20033;-59
2021/08/20 10:49:47;;;;;;;5.07;2.97;;;;;;;27.53;49.59;98009.06;5027326;28;20403;-61
2021/08/20 10:52:23;;;;;;;11.02;3.05;;;;;;;27.88;48.69;98007.81;5028668;28;20033;-61
2021/08/20 10:54:48;;;;;;;5.05;2.70;;;;;;;28.08;47.66;98007.41;5027477;28;20021;-60
2021/08/20 10:57:35;;;;;;;3.97;2.53;;;;;;;28.04;46.92;98006.09;5026985;28;20051;-61
2021/08/20 11:00:03;;;;;;;5.13;2.80;;;;;;;29.01;46.39;98001.16;5026242;28;20025;-61
2021/08/20 11:02:29;;;;;;;4.50;2.70;;;;;;;28.38;46.72;98008.47;5027078;28;20055;-59
2021/08/20 11:05:09;;;;;;;4.60;2.60;;;;;;;29.00;45.69;98004.88;5027890;28;20020;-61
2021/08/20 11:07:34;;;;;;;5.50;2.92;;;;;;;28.46;45.44;97994.16;5027914;28;20025;-59
2021/08/20 11:09:59;;;;;;;4.53;2.83;;;;;;;28.95;44.60;97999.22;5028218;28;20047;-59
2021/08/20 11:12:40;;;;;;;5.07;3.00;;;;;;;29.32;44.63;97999.44;5028390;28;20021;-59
2021/08/20 11:15:17;;;;;;;3.83;2.50;;;;;;;29.47;45.50;97994.09;5026955;28;20091;-61
2021/08/20 11:18:05;;;;;;;4.85;2.90;;;;;;;29.03;44.91;97995.63;5026908;28;20482;-61
2021/08/20 11:20:47;;;;;;;4.28;2.60;;;;;;;28.44;46.26;97996.19;5026043;28;20909;-60
2021/08/20 11:23:13;;;;;;;;;;;;;;;29.92;43.84;98000.31;5028045;28;20040;-59
2021/08/20 11:25:41;;;;;;;5.28;2.70;;;;;;;28.47;45.37;98001.16;5028611;28;19920;-60
2021/08/20 11:28:07;;;;;;;3.65;2.60;;;;;;;28.80;44.42;97995.63;5027944;28;20755;-60
2021/08/20 11:30:39;;;;;;;4.38;2.60;;;;;;;28.33;45.43;98004.63;5027010;28;20040;-61
2021/08/20 11:33:07;;;;;;;4.03;2.55;;;;;;;27.91;47.06;98003.97;5024111;28;20571;-59